Home About Chat Users Issues Party Candidates Polling Firms Media News Polls Calendar Key Races United States President Senate House Governors International

"A historical political resource." 
Email: Password:

  KINETIC CONCEPTS INC POLITICAL ACTION COMMITTEE (KCIPAC)
[X] FECCommittee DETAILS
FEC IDC00235176
NameKINETIC CONCEPTS INC POLITICAL ACTION COMMITTEE (KCIPAC)
Address SAN ANTONIO TX 782659508
Committee TypeSeparate Segregated Fund
Organization TypeCorporation
Lobbyist/Registrant PACX
Leadership PAC
Description
  FINANCE REPORTS (F3)
Contribution Graph
Period PAC Receipts Disbursements Debts To Debts By Cash on Hand
2012-06-01 - 2012-06-30 0.00 457.91 32930.59 0.00 0.00 22.05
2012-05-01 - 2012-05-31 0.00 913.43 29.39 0.00 0.00 32494.73
2012-04-01 - 2012-04-30 0.00 913.28 29.71 0.00 0.00 31610.69
2012-03-01 - 2012-03-31 0.00 933.30 29.60 0.00 0.00 30727.12
2012-02-01 - 2012-02-29 0.00 933.08 29.48 0.00 0.00 29823.42
2012-01-01 - 2012-01-31 0.00 1141.48 29.63 0.00 0.00 28919.82
2011-12-01 - 2011-12-31 0.00 1424.81 2029.37 0.00 0.00 27807.97
2011-11-01 - 2011-11-30 0.00 1424.69 30.08 0.00 0.00 28412.53
2011-10-01 - 2011-10-31 0.00 1424.72 29.77 0.00 0.00 27017.92
2011-08-01 - 2011-08-31 0.00 1424.82 29.31 0.00 0.00 29227.19
2011-07-01 - 2011-07-31 0.00 1424.72 29.13 0.00 0.00 27831.68
2011-06-01 - 2011-06-30 0.00 1424.54 29.44 0.00 0.00 26436.09
2011-05-01 - 2011-05-31 0.00 1424.70 5030.43 0.00 0.00 25040.99
2011-04-01 - 2011-04-30 0.00 1439.11 33.90 0.00 0.00 28646.72
2011-03-01 - 2011-03-31 0.00 4689.19 10029.70 0.00 0.00 27241.51
2011-02-01 - 2011-02-28 0.00 1438.88 1031.66 0.00 0.00 32582.02
2011-01-01 - 2011-01-31 0.00 3479.02 29.45 0.00 0.00 32174.80
2010-10-14 - 2010-11-22 0.00 9052.43 1030.18 0.00 0.00 26636.78
2010-10-01 - 2010-10-13 0.00 0.00 0.00 0.00 0.00 18614.53
2010-09-01 - 2010-09-30 0.00 1512.40 15029.89 0.00 0.00 18614.53
2010-08-01 - 2010-08-31 0.00 1522.40 29.67 0.00 0.00 32132.02
2010-07-01 - 2010-07-31 0.00 1522.26 31.11 0.00 0.00 30639.29
2010-06-01 - 2010-06-30 0.00 2272.06 29.21 0.00 0.00 29148.14
2010-05-01 - 2010-05-31 0.00 1521.99 30.32 0.00 0.00 26905.29
2010-04-01 - 2010-04-30 0.00 4532.65 29.38 0.00 0.00 25413.62
2010-03-01 - 2010-03-31 0.00 1193.86 28.50 0.00 0.00 20910.35
2010-02-01 - 2010-02-28 0.00 1193.81 3428.98 0.00 0.00 19744.99
2010-01-01 - 2010-01-31 0.00 1193.91 28.20 0.00 0.00 21980.16
2009-12-01 - 2009-12-31 0.00 1253.81 27.74 0.00 0.00 20814.45
2009-11-01 - 2009-11-30 0.00 1313.67 28.22 0.00 0.00 19588.38
2009-10-01 - 2009-10-31 0.00 1313.61 27.42 0.00 0.00 18302.93
2009-09-01 - 2009-09-30 0.00 1313.48 27.61 0.00 0.00 17016.74
2009-08-01 - 2009-08-31 0.00 1393.43 27.75 0.00 0.00 15730.87
2009-07-01 - 2009-07-31 0.00 1393.31 27.10 0.00 0.00 14365.19
2009-06-01 - 2009-06-30 0.00 1411.54 27.49 0.00 0.00 12998.98
2009-05-01 - 2009-05-31 0.00 1411.52 26.70 0.00 0.00 11614.93
2009-04-01 - 2009-04-30 0.00 1411.38 26.87 0.00 0.00 10230.11
2009-03-01 - 2009-03-31 0.00 1661.29 26.69 0.00 0.00 8845.60


NEWS
Date Category Headline Article Contributor


DISCUSSION
Top Total Contributions From
Committee Amount
Contributions To
Date Committee Amount
2010-11-22 Renee Ellmers for Congress Committee 1000.00
2010-11-02 Michael Burgess for Congress 1000.00
2010-11-01 Volunteers for Shimkus 2500.00
2010-10-30 Pallone for Congress 1000.00
2010-10-29 Great Lakes PAC 1000.00
2010-10-27 Price for Congress 1000.00
2010-10-26 Continuing A Majority Party Action Committee (CAMPAC) 2500.00
2010-09-21 KPAC 1000.00
2010-03-22 Citizens for Altmire 2400.00
2010-02-27 Charles A. Gonzalez Congressional Campaign 2500.00
2009-05-21 Michael Burgess for Congress 1000.00